Midkiff, Texas
Current Conditions -  °F | °C
As of 10:53 PM on Wednesday 22 Oct 2014 (Local Time) from KMAF Reporting Station
Clear Clear  
Wind Chill: 60°   Ceiling: Unl
Heat Index: 60°   Visibility: 10mi
Dew Point: 52°   Wind: 9mph
Humidity: 75%   Direction: 150°SSE
Pressure: 30.14"   Gusts: NA
Location:  31.63°N, 101.84°W
Report Text: KMAF 230353Z 15008KT 10SM CLR 16/11 A3014 RMK AO2 SLP173 T01560111
Loading
Personal Weather Stations






























Interactive Weather Map
Tropical Storm Tracking
New forecast layout! Learn more

10-Day Weather Forecast

Advertisements
Track Severe Weather on mobile